Time;durP1;ratioP1;P1;durP2;ratioP2;P2;SDS_P1;SDS_P2;PMS_P1;PMS_P2;Temp;Humidity;BMP_temperature;BMP_pressure;BME280_temperature;BME280_humidity;BME280_pressure;Samples;Min_cycle;Max_cycle;Signal;HPM_P1;HPM_P2
2021/12/29 01:39:02;;;;;;;46.58;11.80;;;;;;;;;;6177031;22;3926320;-79
2021/12/29 01:41:38;;;;;;;46.63;12.35;;;;;;;;;;6321840;22;20067;-80
2021/12/29 01:44:05;;;;;;;44.55;13.75;;;;;;;;;;6321516;22;20010;-79
2021/12/29 01:46:54;;;;;;;45.83;12.70;;;;;;;;;;6320878;22;20148;-80
2021/12/29 01:49:24;;;;;;;43.10;12.98;;;;;;;;;;6321559;22;20068;-80
2021/12/29 01:52:08;;;;;;;30.27;11.38;;;;;;;;;;6347441;22;20064;-79
2021/12/29 01:54:35;;;;;;;28.52;11.77;;;;;;;;;;6321668;22;20116;-79
2021/12/29 01:57:02;;;;;;;36.42;12.35;;;;;;;;;;6321072;22;20042;-80
2021/12/29 01:59:29;;;;;;;40.50;13.20;;;;;;;;;;6321761;22;20015;-80
2021/12/29 02:01:55;;;;;;;38.35;12.93;;;;;;;;;;6347787;22;20022;-78
2021/12/29 02:04:21;;;;;;;36.38;12.55;;;;;;;;;;6347709;22;20018;-79
2021/12/29 02:06:49;;;;;;;31.58;12.85;;;;;;;;;;6321275;22;20046;-78
2021/12/29 02:09:15;;;;;;;31.77;12.48;;;;;;;;;;6347131;22;20007;-78
2021/12/29 02:11:42;;;;;;;31.83;12.82;;;;;;;;;;6347526;22;20363;-80
2021/12/29 02:14:09;;;;;;;26.17;12.07;;;;;;;;;;6321780;22;20308;-79
2021/12/29 02:16:35;;;;;;;30.00;11.73;;;;;;;;;;6321357;22;20057;-78
2021/12/29 02:19:04;;;;;;;31.90;12.32;;;;;;;;;;6321649;22;20017;-77
2021/12/29 02:21:32;;;;;;;22.88;11.88;;;;;;;;;;6347304;22;20015;-80
2021/12/29 02:26:26;;;;;;;22.05;11.77;;;;;;;;;;6346577;22;20026;-80
2021/12/29 02:28:55;;;;;;;23.05;11.27;;;;;;;;;;6321103;22;20011;-78
2021/12/29 02:31:21;;;;;;;24.98;11.60;;;;;;;;;;6320830;22;20011;-79
2021/12/29 02:33:47;;;;;;;19.88;11.13;;;;;;;;;;6321066;22;20010;-78
2021/12/29 02:36:16;;;;;;;24.63;11.63;;;;;;;;;;6320865;22;20018;-78
2021/12/29 02:38:47;;;;;;;19.63;10.50;;;;;;;;;;6316014;22;20018;-79
2021/12/29 02:41:14;;;;;;;19.23;10.15;;;;;;;;;;6339813;22;20011;-80
2021/12/29 02:43:41;;;;;;;19.95;10.77;;;;;;;;;;6340627;22;20081;-79
2021/12/29 02:46:11;;;;;;;23.33;11.15;;;;;;;;;;6313925;22;20014;-81
2021/12/29 02:48:41;;;;;;;21.50;10.32;;;;;;;;;;6314296;22;20017;-78
2021/12/29 02:51:08;;;;;;;24.38;11.02;;;;;;;;;;6313776;22;20015;-79
2021/12/29 02:53:35;;;;;;;24.77;11.38;;;;;;;;;;6313553;22;20010;-80
2021/12/29 02:56:01;;;;;;;19.63;11.15;;;;;;;;;;6313438;22;20022;-78
2021/12/29 02:58:28;;;;;;;20.73;10.98;;;;;;;;;;6313183;22;20442;-78
2021/12/29 03:00:55;;;;;;;17.55;10.70;;;;;;;;;;6314314;22;20057;-79
2021/12/29 03:03:23;;;;;;;19.38;10.40;;;;;;;;;;6313754;22;20059;-80
2021/12/29 03:05:49;;;;;;;26.73;12.05;;;;;;;;;;6313456;22;20037;-79
2021/12/29 03:08:16;;;;;;;21.02;11.05;;;;;;;;;;6313362;22;20011;-80
2021/12/29 03:10:42;;;;;;;20.02;11.50;;;;;;;;;;6314029;22;20011;-79
2021/12/29 03:13:08;;;;;;;17.65;11.00;;;;;;;;;;6313379;22;20370;-78
2021/12/29 03:15:38;;;;;;;18.05;10.55;;;;;;;;;;6314036;22;20011;-78
2021/12/29 03:18:07;;;;;;;27.52;11.60;;;;;;;;;;6313085;22;20015;-79
2021/12/29 03:20:36;;;;;;;16.80;10.77;;;;;;;;;;6313388;22;20505;-78
2021/12/29 03:23:05;;;;;;;17.27;10.95;;;;;;;;;;6314140;22;20076;-79
2021/12/29 03:25:32;;;;;;;21.58;11.00;;;;;;;;;;6313515;22;20018;-79
2021/12/29 03:28:00;;;;;;;18.70;10.75;;;;;;;;;;6313178;22;20019;-78
2021/12/29 03:30:31;;;;;;;18.50;11.00;;;;;;;;;;6313405;22;20416;-78
2021/12/29 03:33:05;;;;;;;18.27;10.32;;;;;;;;;;6313237;22;20029;-79
2021/12/29 03:36:00;;;;;;;14.02;9.52;;;;;;;;;;6314228;22;20144;-78
2021/12/29 03:38:37;;;;;;;17.15;9.73;;;;;;;;;;6312690;22;20340;-80
2021/12/29 03:41:24;;;;;;;20.30;10.15;;;;;;;;;;6312685;22;20025;-81
2021/12/29 03:44:35;;;;;;;23.52;10.90;;;;;;;;;;6339908;22;20014;-78
2021/12/29 03:51:17;;;;;;;;;;;;;;;;;;;;;
2021/12/29 03:53:56;;;;;;;;;;;;;;;;;;;;;
2021/12/29 06:52:06;;;;;;;38.75;14.50;;;;;;;;;;6245640;23;20015;-78
2021/12/29 06:54:44;;;;;;;45.00;15.43;;;;;;;;;;6349532;22;20014;-77
2021/12/29 06:57:10;;;;;;;41.85;14.02;;;;;;;;;;6350320;22;20031;-78
2021/12/29 06:59:36;;;;;;;44.10;14.32;;;;;;;;;;6350260;22;20006;-78
2021/12/29 07:02:02;;;;;;;34.40;13.15;;;;;;;;;;6350279;22;20043;-80
2021/12/29 07:04:29;;;;;;;40.35;14.85;;;;;;;;;;6404622;22;20006;-79
2021/12/29 07:07:01;;;;;;;44.30;13.77;;;;;;;;;;6349677;22;20145;-80
2021/12/29 07:09:27;;;;;;;39.47;14.45;;;;;;;;;;6349923;22;20407;-78
2021/12/29 07:11:53;;;;;;;48.08;14.60;;;;;;;;;;6350398;22;20013;-79
2021/12/29 07:14:21;;;;;;;44.25;14.88;;;;;;;;;;6376692;22;20089;-80
2021/12/29 07:16:47;;;;;;;41.30;13.48;;;;;;;;;;6376570;22;20045;-79
2021/12/29 07:19:14;;;;;;;35.78;14.23;;;;;;;;;;6376410;22;20087;-78
2021/12/29 07:21:40;;;;;;;45.42;14.75;;;;;;;;;;6376197;22;20009;-78
2021/12/29 07:24:06;;;;;;;47.63;15.93;;;;;;;;;;6349511;22;20098;-80
2021/12/29 07:26:33;;;;;;;40.92;14.32;;;;;;;;;;6374954;22;20042;-78
2021/12/29 07:28:59;;;;;;;42.53;13.80;;;;;;;;;;6376333;22;20010;-77
2021/12/29 07:31:25;;;;;;;63.97;16.77;;;;;;;;;;6376160;22;20014;-79
2021/12/29 07:33:52;;;;;;;47.00;14.93;;;;;;;;;;6404168;22;20021;-78
2021/12/29 07:36:18;;;;;;;82.25;18.60;;;;;;;;;;6376024;22;20014;-76
2021/12/29 07:38:44;;;;;;;55.70;15.75;;;;;;;;;;6349931;22;20082;-79
2021/12/29 07:41:11;;;;;;;65.00;15.15;;;;;;;;;;6349579;22;20335;-78
2021/12/29 07:43:38;;;;;;;88.88;17.25;;;;;;;;;;6349938;22;20024;-79
2021/12/29 07:46:04;;;;;;;44.17;14.07;;;;;;;;;;6349767;22;20018;-78
2021/12/29 07:48:31;;;;;;;49.85;15.02;;;;;;;;;;6376167;22;20085;-76
2021/12/29 07:50:58;;;;;;;49.75;14.05;;;;;;;;;;6349729;22;20022;-78
2021/12/29 07:53:24;;;;;;;74.03;15.48;;;;;;;;;;6375899;22;20429;-77
2021/12/29 07:55:50;;;;;;;56.85;14.07;;;;;;;;;;6375487;22;20427;-78
2021/12/29 07:58:16;;;;;;;48.90;13.10;;;;;;;;;;6376331;22;20014;-78
2021/12/29 08:00:44;;;;;;;93.60;14.18;;;;;;;;;;6375852;22;20014;-78
2021/12/29 08:03:12;;;;;;;66.53;13.57;;;;;;;;;;6349898;22;20416;-77
2021/12/29 08:05:38;;;;;;;109.50;15.95;;;;;;;;;;6350092;22;20022;-79
2021/12/29 08:08:26;;;;;;;81.05;14.20;;;;;;;;;;6348807;22;20021;-78
2021/12/29 08:11:06;;;;;;;94.75;14.82;;;;;;;;;;6351987;22;20014;-78
2021/12/29 08:13:49;;;;;;;105.22;16.10;;;;;;;;;;6375713;22;20025;-78
2021/12/29 08:16:43;;;;;;;56.92;13.57;;;;;;;;;;6403562;22;20016;-77
2021/12/29 08:19:27;;;;;;;43.95;12.52;;;;;;;;;;6351359;22;20017;-77
2021/12/29 08:22:02;;;;;;;50.83;12.40;;;;;;;;;;6374357;22;20010;-77
2021/12/29 08:24:28;;;;;;;37.70;11.23;;;;;;;;;;6348752;22;20020;-76
2021/12/29 08:26:54;;;;;;;48.78;12.85;;;;;;;;;;6375398;22;20014;-78
2021/12/29 08:29:27;;;;;;;108.70;15.77;;;;;;;;;;6375519;22;20037;-78
2021/12/29 08:31:55;;;;;;;35.33;12.02;;;;;;;;;;6349691;22;20016;-78
2021/12/29 08:34:30;;;;;;;56.95;13.88;;;;;;;;;;6349796;22;20006;-81
2021/12/29 08:36:56;;;;;;;47.13;13.43;;;;;;;;;;6348879;22;20010;-78
2021/12/29 08:39:23;;;;;;;24.67;11.38;;;;;;;;;;6348625;22;20415;-78
2021/12/29 08:41:50;;;;;;;34.13;12.13;;;;;;;;;;6375228;22;20014;-79
2021/12/29 08:44:16;;;;;;;30.13;11.75;;;;;;;;;;6348317;22;20022;-78
2021/12/29 08:46:43;;;;;;;26.50;10.77;;;;;;;;;;6375735;22;20009;-79
2021/12/29 08:49:09;;;;;;;27.40;10.13;;;;;;;;;;6375766;22;20006;-76
2021/12/29 08:51:35;;;;;;;22.70;9.55;;;;;;;;;;6403025;22;20018;-79
2021/12/29 08:54:01;;;;;;;21.88;9.95;;;;;;;;;;6374821;22;20288;-81
2021/12/29 08:59:13;;;;;;;24.52;10.43;;;;;;;;;;6374233;22;20315;-80
2021/12/29 09:01:40;;;;;;;22.63;9.73;;;;;;;;;;6347483;22;20367;-78
2021/12/29 09:04:07;;;;;;;21.42;9.13;;;;;;;;;;6375270;22;20014;-80
2021/12/29 09:06:38;;;;;;;29.23;9.93;;;;;;;;;;6349566;22;20014;-80
2021/12/29 09:09:07;;;;;;;20.52;9.30;;;;;;;;;;6349300;22;20318;-81
2021/12/29 09:11:36;;;;;;;23.90;9.60;;;;;;;;;;6376138;22;20054;-79
2021/12/29 09:14:03;;;;;;;24.15;9.00;;;;;;;;;;6311938;22;20022;-78
2021/12/29 09:16:33;;;;;;;24.90;8.68;;;;;;;;;;6286281;22;20320;-78
2021/12/29 09:18:59;;;;;;;20.67;8.70;;;;;;;;;;6311342;22;20508;-78
2021/12/29 09:21:30;;;;;;;23.48;9.90;;;;;;;;;;6285634;22;20042;-78
2021/12/29 09:23:56;;;;;;;18.33;8.38;;;;;;;;;;6286589;22;20309;-77
2021/12/29 09:26:27;;;;;;;18.10;9.27;;;;;;;;;;6285656;22;20050;-77
2021/12/29 09:28:53;;;;;;;18.45;8.63;;;;;;;;;;6311407;22;20071;-78
2021/12/29 09:31:44;;;;;;;19.10;7.85;;;;;;;;;;6310781;22;20017;-77
2021/12/29 09:34:57;;;;;;;;;;;;;;;;;;;;;
2021/12/29 09:45:07;;;;;;;17.08;7.68;;;;;;;;;;6184174;22;20111;-80
2021/12/29 09:47:36;;;;;;;18.25;7.47;;;;;;;;;;6167540;23;20016;-77
2021/12/29 09:50:50;;;;;;;;;;;;;;;;;;;;;
2021/12/29 09:57:47;;;;;;;15.73;6.47;;;;;;;;;;6028676;23;20083;-78
2021/12/29 10:00:54;;;;;;;13.88;5.82;;;;;;;;;;6038932;23;20035;-78
2021/12/29 10:03:24;;;;;;;13.77;6.25;;;;;;;;;;5985986;23;20015;-78
2021/12/29 10:06:13;;;;;;;14.57;6.53;;;;;;;;;;6096412;23;20148;-79
2021/12/29 10:08:41;;;;;;;14.32;6.05;;;;;;;;;;6102064;23;20028;-77
2021/12/29 10:11:41;;;;;;;14.27;5.40;;;;;;;;;;6116029;23;20307;-79
2021/12/29 10:14:09;;;;;;;16.27;6.20;;;;;;;;;;6193577;22;20413;-77
2021/12/29 10:16:35;;;;;;;15.82;6.13;;;;;;;;;;6340142;22;20011;-74
2021/12/29 10:19:03;;;;;;;18.63;6.18;;;;;;;;;;6341582;22;20542;-77
2021/12/29 10:21:36;;;;;;;17.98;5.90;;;;;;;;;;6314349;22;20022;-80
2021/12/29 10:24:02;;;;;;;16.52;6.18;;;;;;;;;;6340828;22;20018;-77
2021/12/29 10:26:48;;;;;;;18.95;5.97;;;;;;;;;;6246707;23;20015;-78
2021/12/29 10:29:15;;;;;;;15.18;5.85;;;;;;;;;;6217311;23;20352;-79
2021/12/29 10:31:44;;;;;;;17.23;5.72;;;;;;;;;;6281813;22;20045;-79
2021/12/29 10:34:12;;;;;;;18.70;5.72;;;;;;;;;;6314261;22;20500;-78
2021/12/29 10:36:50;;;;;;;19.10;6.15;;;;;;;;;;6339940;22;20011;-82
2021/12/29 10:39:16;;;;;;;18.25;6.50;;;;;;;;;;6307357;22;20026;-79
2021/12/29 10:41:45;;;;;;;19.60;6.78;;;;;;;;;;6314072;22;20030;-79
2021/12/29 10:44:13;;;;;;;17.73;5.82;;;;;;;;;;6318909;22;20099;-78
2021/12/29 10:46:40;;;;;;;12.43;4.90;;;;;;;;;;6319981;22;20021;-80
2021/12/29 10:49:08;;;;;;;16.33;6.20;;;;;;;;;;6341322;22;20006;-79
2021/12/29 10:51:36;;;;;;;13.65;4.82;;;;;;;;;;6318361;22;20046;-79
2021/12/29 10:54:13;;;;;;;18.02;5.75;;;;;;;;;;6318969;22;20011;-79
2021/12/29 10:56:40;;;;;;;17.73;5.65;;;;;;;;;;6318145;22;20010;-79
2021/12/29 10:59:18;;;;;;;16.75;6.22;;;;;;;;;;6318613;22;20014;-79
2021/12/29 11:01:51;;;;;;;17.85;5.90;;;;;;;;;;6320958;22;20018;-80
2021/12/29 11:04:21;;;;;;;15.35;5.65;;;;;;;;;;6345362;22;20018;-78
2021/12/29 11:06:49;;;;;;;16.63;5.95;;;;;;;;;;6318786;22;20446;-79
2021/12/29 11:09:22;;;;;;;13.13;5.95;;;;;;;;;;6332549;22;20010;-79
2021/12/29 11:11:48;;;;;;;22.48;6.82;;;;;;;;;;6346418;22;20147;-80
2021/12/29 11:14:16;;;;;;;15.85;5.90;;;;;;;;;;6345255;22;20018;-79
2021/12/29 11:16:44;;;;;;;24.58;6.47;;;;;;;;;;6319342;22;20017;-80
2021/12/29 11:19:10;;;;;;;15.60;6.60;;;;;;;;;;6319456;22;20030;-79
2021/12/29 11:21:41;;;;;;;15.85;6.43;;;;;;;;;;6319399;22;20014;-80
2021/12/29 11:24:12;;;;;;;16.73;7.07;;;;;;;;;;6319581;22;20010;-78
2021/12/29 11:26:38;;;;;;;18.15;7.43;;;;;;;;;;6319054;22;20014;-78
2021/12/29 11:29:14;;;;;;;16.85;5.70;;;;;;;;;;6318877;22;20006;-80
2021/12/29 11:31:41;;;;;;;17.77;7.22;;;;;;;;;;6318824;22;20010;-80
2021/12/29 11:34:13;;;;;;;19.90;7.60;;;;;;;;;;6318572;22;20445;-78
2021/12/29 11:36:39;;;;;;;19.48;6.18;;;;;;;;;;6344359;22;20085;-78
2021/12/29 11:39:06;;;;;;;16.50;6.63;;;;;;;;;;6345337;22;20014;-79
2021/12/29 11:41:33;;;;;;;11.63;6.13;;;;;;;;;;6344199;22;20022;-80
2021/12/29 11:43:59;;;;;;;16.60;6.20;;;;;;;;;;6331394;22;20097;-78
2021/12/29 11:46:25;;;;;;;20.83;6.53;;;;;;;;;;6376072;22;20022;-80
2021/12/29 11:48:52;;;;;;;16.27;6.20;;;;;;;;;;6374123;22;20010;-78
2021/12/29 11:51:20;;;;;;;17.85;6.40;;;;;;;;;;6403252;22;20505;-81
2021/12/29 11:53:55;;;;;;;18.83;7.13;;;;;;;;;;6349273;22;20050;-80
2021/12/29 11:56:22;;;;;;;17.38;6.45;;;;;;;;;;6349079;22;20092;-78
2021/12/29 11:58:50;;;;;;;18.42;6.55;;;;;;;;;;6349534;22;20429;-81
2021/12/29 12:01:16;;;;;;;18.63;6.80;;;;;;;;;;6375215;22;20009;-80
2021/12/29 12:03:44;;;;;;;13.10;6.45;;;;;;;;;;6349919;22;20018;-80
2021/12/29 12:06:22;;;;;;;15.65;6.10;;;;;;;;;;6375322;22;20009;-80
2021/12/29 12:08:49;;;;;;;15.68;6.18;;;;;;;;;;6349807;22;20138;-79
2021/12/29 12:11:31;;;;;;;14.55;6.57;;;;;;;;;;6348967;22;20045;-80
2021/12/29 12:14:00;;;;;;;13.35;5.68;;;;;;;;;;6349579;22;20135;-80
2021/12/29 12:16:32;;;;;;;13.65;5.65;;;;;;;;;;6375926;22;20037;-79
2021/12/29 12:19:02;;;;;;;18.52;5.55;;;;;;;;;;6349818;22;20010;-80
2021/12/29 12:21:44;;;;;;;15.13;5.43;;;;;;;;;;6349542;22;20044;-80
2021/12/29 12:24:23;;;;;;;21.73;5.60;;;;;;;;;;6350828;22;20042;-80
2021/12/29 12:26:57;;;;;;;18.17;6.05;;;;;;;;;;6349458;22;20096;-80
2021/12/29 12:29:28;;;;;;;16.17;6.03;;;;;;;;;;6348843;22;20394;-79
2021/12/29 12:32:15;;;;;;;16.85;7.78;;;;;;;;;;6350510;22;20072;-79
2021/12/29 12:34:52;;;;;;;15.82;6.75;;;;;;;;;;6349226;22;20010;-80
2021/12/29 12:37:51;;;;;;;15.98;7.10;;;;;;;;;;6375476;22;20013;-79
2021/12/29 12:40:28;;;;;;;18.00;8.13;;;;;;;;;;6348679;22;20097;-79
2021/12/29 12:43:10;;;;;;;15.35;7.45;;;;;;;;;;6345139;22;20032;-79
2021/12/29 12:45:53;;;;;;;15.57;6.35;;;;;;;;;;6349143;22;20416;-80
2021/12/29 12:48:30;;;;;;;14.60;5.43;;;;;;;;;;6349078;22;20018;-80
2021/12/29 12:51:05;;;;;;;18.30;5.43;;;;;;;;;;6348868;22;20447;-80
2021/12/29 12:53:36;;;;;;;11.23;4.78;;;;;;;;;;6348779;22;20013;-80
2021/12/29 12:56:25;;;;;;;15.27;5.15;;;;;;;;;;6349522;22;20376;-80
2021/12/29 12:58:58;;;;;;;13.20;5.38;;;;;;;;;;6349618;22;20021;-80
2021/12/29 13:01:32;;;;;;;12.57;6.10;;;;;;;;;;6347479;22;20024;-83
2021/12/29 13:04:11;;;;;;;11.50;5.18;;;;;;;;;;6349277;22;20013;-79
2021/12/29 13:06:52;;;;;;;11.93;5.50;;;;;;;;;;6374770;22;20010;-80
2021/12/29 13:09:41;;;;;;;9.77;5.10;;;;;;;;;;6350230;22;20361;-80
2021/12/29 13:12:24;;;;;;;11.25;5.20;;;;;;;;;;6348277;22;20113;-79
2021/12/29 13:15:02;;;;;;;14.43;5.35;;;;;;;;;;6346538;22;20014;-80
2021/12/29 13:17:39;;;;;;;11.85;6.07;;;;;;;;;;6346884;22;20016;-80
2021/12/29 13:20:10;;;;;;;11.57;6.03;;;;;;;;;;6349888;22;20088;-79
2021/12/29 13:22:39;;;;;;;10.90;6.10;;;;;;;;;;6348166;22;20395;-79
2021/12/29 13:25:24;;;;;;;11.10;5.93;;;;;;;;;;6350044;22;20029;-82
2021/12/29 13:35:07;;;;;;;9.82;5.82;;;;;;;;;;6153331;23;20045;-81
2021/12/29 13:37:37;;;;;;;9.10;5.53;;;;;;;;;;6280087;22;20015;-81
2021/12/29 13:40:21;;;;;;;10.85;5.97;;;;;;;;;;6279561;22;20019;-80
2021/12/29 13:47:39;;;;;;;;;;;;;;;;;;;;;
2021/12/29 13:50:43;;;;;;;;;;;;;;;;;;;;;
2021/12/29 14:00:35;;;;;;;11.70;6.13;;;;;;;;;;6337258;22;20023;-79
2021/12/29 14:06:29;;;;;;;10.27;6.10;;;;;;;;;;6274639;22;20099;-76
2021/12/29 14:52:18;;;;;;;17.83;9.70;;;;;;;;;;6179966;22;1247304;-80
2021/12/29 15:01:30;;;;;;;15.85;9.88;;;;;;;;;;6193567;23;20005;-79
2021/12/29 15:14:53;;;;;;;19.20;11.35;;;;;;;;;;6045819;23;20022;-83
2021/12/29 15:17:20;;;;;;;24.50;12.43;;;;;;;;;;6055056;23;20030;-77
2021/12/29 15:19:46;;;;;;;22.20;12.15;;;;;;;;;;6162515;23;20415;-73
2021/12/29 15:22:12;;;;;;;19.17;12.07;;;;;;;;;;6143599;23;20012;-74
2021/12/29 15:24:38;;;;;;;20.80;11.38;;;;;;;;;;6194393;23;20021;-74
2021/12/29 15:27:05;;;;;;;20.90;12.45;;;;;;;;;;6194236;23;20026;-74
2021/12/29 15:29:31;;;;;;;22.60;12.75;;;;;;;;;;6169318;23;20025;-73
2021/12/29 15:31:59;;;;;;;17.77;12.98;;;;;;;;;;6194783;23;20031;-75
2021/12/29 15:34:26;;;;;;;26.20;13.13;;;;;;;;;;6168669;23;20025;-74
2021/12/29 15:36:53;;;;;;;20.60;12.45;;;;;;;;;;6168441;23;20130;-76
2021/12/29 15:39:25;;;;;;;19.02;12.70;;;;;;;;;;6167896;23;20315;-77
2021/12/29 15:41:52;;;;;;;21.10;13.52;;;;;;;;;;6144385;23;20064;-77
2021/12/29 15:44:19;;;;;;;22.80;12.98;;;;;;;;;;6194988;23;20079;-76
2021/12/29 15:46:45;;;;;;;19.30;12.13;;;;;;;;;;6165500;23;20013;-75
2021/12/29 15:49:11;;;;;;;21.00;12.48;;;;;;;;;;6161969;23;20025;-74
2021/12/29 15:51:37;;;;;;;19.20;13.05;;;;;;;;;;6156645;23;20083;-74
2021/12/29 15:54:03;;;;;;;21.52;13.00;;;;;;;;;;6157732;23;20040;-74
2021/12/29 15:56:29;;;;;;;21.52;12.82;;;;;;;;;;6158144;23;20026;-76
2021/12/29 15:58:56;;;;;;;25.10;14.52;;;;;;;;;;6158210;23;20420;-73
2021/12/29 16:01:23;;;;;;;25.08;14.48;;;;;;;;;;6158274;23;20068;-75
2021/12/29 16:03:49;;;;;;;22.23;13.93;;;;;;;;;;6157375;23;20025;-74
2021/12/29 16:06:16;;;;;;;22.08;14.07;;;;;;;;;;6158007;23;20036;-73
2021/12/29 16:08:42;;;;;;;26.60;15.38;;;;;;;;;;6157044;23;20057;-73
2021/12/29 16:11:08;;;;;;;24.13;14.93;;;;;;;;;;6156919;23;20021;-73
2021/12/29 16:13:35;;;;;;;24.05;14.85;;;;;;;;;;6156517;23;20025;-72
2021/12/29 16:16:01;;;;;;;28.05;14.85;;;;;;;;;;6157982;23;20048;-74
2021/12/29 16:18:27;;;;;;;21.63;15.05;;;;;;;;;;6156793;23;20028;-72
2021/12/29 16:20:54;;;;;;;27.17;16.55;;;;;;;;;;6157048;23;20423;-73
2021/12/29 16:23:20;;;;;;;23.60;15.43;;;;;;;;;;6156754;23;20021;-73
2021/12/29 16:25:46;;;;;;;23.40;15.38;;;;;;;;;;6157578;23;20026;-73
2021/12/29 16:28:12;;;;;;;22.25;14.65;;;;;;;;;;6156759;23;20167;-74
2021/12/29 16:30:41;;;;;;;20.60;14.00;;;;;;;;;;6157114;23;20108;-74
2021/12/29 16:33:09;;;;;;;25.25;15.90;;;;;;;;;;6156482;23;20160;-74
2021/12/29 16:35:35;;;;;;;21.90;15.50;;;;;;;;;;6157282;23;20057;-75
2021/12/29 16:38:02;;;;;;;22.25;14.82;;;;;;;;;;6156226;23;20022;-79
2021/12/29 16:40:28;;;;;;;20.60;14.70;;;;;;;;;;6157468;23;20021;-78
2021/12/29 16:42:55;;;;;;;22.75;16.20;;;;;;;;;;6156754;23;20104;-77
2021/12/29 16:45:21;;;;;;;21.48;14.35;;;;;;;;;;6156883;23;20419;-79
2021/12/29 16:47:48;;;;;;;21.70;15.57;;;;;;;;;;6156661;23;20045;-80
2021/12/29 16:50:15;;;;;;;20.02;14.82;;;;;;;;;;6156628;23;20014;-85
2021/12/29 16:52:41;;;;;;;22.35;16.05;;;;;;;;;;6157415;23;20080;-77
2021/12/29 16:55:09;;;;;;;20.05;14.90;;;;;;;;;;6157342;23;20021;-78
2021/12/29 16:57:35;;;;;;;21.55;14.75;;;;;;;;;;6132912;23;20420;-77
2021/12/29 17:00:06;;;;;;;24.25;16.30;;;;;;;;;;6131202;23;20073;-85
2021/12/29 17:02:32;;;;;;;19.85;14.82;;;;;;;;;;6155813;23;20017;-77
2021/12/29 17:04:58;;;;;;;21.25;14.60;;;;;;;;;;6156437;23;20022;-78
2021/12/29 17:07:24;;;;;;;21.92;15.27;;;;;;;;;;6157466;23;20063;-78
2021/12/29 17:09:53;;;;;;;21.33;14.43;;;;;;;;;;6156741;23;20021;-78
2021/12/29 17:12:19;;;;;;;22.05;14.45;;;;;;;;;;6157974;23;20024;-76
2021/12/29 17:14:45;;;;;;;22.75;15.05;;;;;;;;;;6157383;23;20364;-77
2021/12/29 17:17:11;;;;;;;19.92;13.98;;;;;;;;;;6156938;23;20372;-79
2021/12/29 17:19:37;;;;;;;22.30;14.80;;;;;;;;;;6156273;23;20435;-76
2021/12/29 17:22:06;;;;;;;19.52;14.85;;;;;;;;;;6157458;23;20017;-78
2021/12/29 17:24:32;;;;;;;20.63;14.57;;;;;;;;;;6156236;23;20017;-78
2021/12/29 17:26:58;;;;;;;19.52;14.07;;;;;;;;;;6131389;23;20444;-77
2021/12/29 17:29:26;;;;;;;29.83;19.42;;;;;;;;;;6157467;23;20068;-78
2021/12/29 17:31:52;;;;;;;23.48;15.38;;;;;;;;;;6156860;23;20033;-78
2021/12/29 17:34:18;;;;;;;24.92;16.65;;;;;;;;;;6156490;23;20014;-85
2021/12/29 17:36:45;;;;;;;21.88;16.27;;;;;;;;;;6156193;23;20014;-78
2021/12/29 17:39:11;;;;;;;23.27;18.80;;;;;;;;;;6158008;23;20025;-82
2021/12/29 17:41:37;;;;;;;24.92;16.75;;;;;;;;;;6156576;23;20056;-80
2021/12/29 17:44:03;;;;;;;19.90;13.60;;;;;;;;;;6131843;23;20022;-79
2021/12/29 17:46:30;;;;;;;15.65;11.00;;;;;;;;;;6157285;23;20424;-78
2021/12/29 17:48:56;;;;;;;14.93;11.13;;;;;;;;;;6156843;23;20355;-82
2021/12/29 17:51:23;;;;;;;17.80;12.45;;;;;;;;;;6134525;23;20018;-80
2021/12/29 17:53:49;;;;;;;17.45;13.13;;;;;;;;;;6136661;23;20083;-81
2021/12/29 17:56:16;;;;;;;17.30;12.40;;;;;;;;;;6160344;23;20016;-82
2021/12/29 17:58:43;;;;;;;17.30;12.93;;;;;;;;;;6161063;23;20020;-81
2021/12/29 18:01:10;;;;;;;17.02;12.70;;;;;;;;;;6136049;23;20013;-80
2021/12/29 18:03:36;;;;;;;16.92;14.00;;;;;;;;;;6136289;23;20015;-83
2021/12/29 18:06:03;;;;;;;14.48;11.75;;;;;;;;;;6135214;23;20088;-82
2021/12/29 18:08:34;;;;;;;13.82;10.98;;;;;;;;;;6135857;23;20445;-83
2021/12/29 18:11:12;;;;;;;13.75;10.88;;;;;;;;;;6134954;23;20628;-82
2021/12/29 18:13:41;;;;;;;14.73;11.65;;;;;;;;;;6099942;23;20448;-84
2021/12/29 18:16:15;;;;;;;17.50;13.52;;;;;;;;;;6076614;23;20049;-80
2021/12/29 18:18:52;;;;;;;13.88;10.75;;;;;;;;;;6075583;23;20049;-84
2021/12/29 18:21:21;;;;;;;15.55;12.30;;;;;;;;;;6076247;23;20316;-82
2021/12/29 18:23:48;;;;;;;13.82;10.93;;;;;;;;;;6075494;23;20098;-80
2021/12/29 18:26:14;;;;;;;13.82;11.05;;;;;;;;;;6076013;23;20018;-83
2021/12/29 18:28:41;;;;;;;15.90;12.20;;;;;;;;;;6076816;23;20097;-82
2021/12/29 18:31:08;;;;;;;16.30;12.98;;;;;;;;;;6076664;23;20024;-82
2021/12/29 18:33:34;;;;;;;17.35;12.80;;;;;;;;;;6100617;23;20463;-83
2021/12/29 18:36:06;;;;;;;18.92;12.98;;;;;;;;;;6076756;23;20093;-83
2021/12/29 18:38:44;;;;;;;20.60;14.30;;;;;;;;;;6077362;23;20025;-84
2021/12/29 20:32:01;;;;;;;17.27;4.75;;;;;;;;;;6137331;23;20049;-83
2021/12/29 20:34:34;;;;;;;17.90;4.95;;;;;;;;;;6132163;23;20021;-76
2021/12/29 21:38:49;;;;;;;18.08;5.07;;;;;;;;;;6156581;23;20382;-78
2021/12/29 21:41:55;;;;;;;25.65;5.65;;;;;;;;;;6135755;23;20021;-79
2021/12/29 21:48:10;;;;;;;21.73;4.97;;;;;;;;;;6186065;23;20311;-79
2021/12/29 21:53:43;;;;;;;22.23;4.78;;;;;;;;;;6151709;23;20017;-78
2021/12/29 21:56:12;;;;;;;17.77;4.20;;;;;;;;;;6160901;23;20450;-79
2021/12/29 21:59:02;;;;;;;22.25;5.28;;;;;;;;;;6136770;23;20021;-79
2021/12/29 22:01:46;;;;;;;19.00;4.82;;;;;;;;;;6135313;23;20092;-78
2021/12/29 22:04:12;;;;;;;23.13;5.13;;;;;;;;;;6136102;23;20445;-78
2021/12/29 22:06:50;;;;;;;20.58;5.07;;;;;;;;;;6160824;23;20023;-79
2021/12/29 22:09:30;;;;;;;18.35;4.53;;;;;;;;;;6136084;23;20016;-79
2021/12/29 22:15:12;;;;;;;23.13;5.35;;;;;;;;;;6167858;23;20439;-79
2021/12/29 22:17:49;;;;;;;19.40;4.85;;;;;;;;;;6134818;23;20027;-79
2021/12/29 22:20:27;;;;;;;23.58;7.60;;;;;;;;;;6135130;23;20374;-79
2021/12/29 22:23:29;;;;;;;;;;;;;;;;;;;;;
2021/12/29 22:29:20;;;;;;;20.02;5.03;;;;;;;;;;6143382;23;20036;-79
2021/12/29 22:31:53;;;;;;;20.52;4.90;;;;;;;;;;6133198;23;20014;-79
2021/12/29 22:34:46;;;;;;;26.88;5.80;;;;;;;;;;6137241;23;20031;-79
2021/12/29 22:41:07;;;;;;;;;;;;;;;;;;;;;
2021/12/29 22:44:01;;;;;;;21.35;5.57;;;;;;;;;;6130234;23;20017;-79
2021/12/29 22:53:36;;;;;;;28.58;7.50;;;;;;;;;;6155428;23;20017;-79
2021/12/29 22:56:13;;;;;;;19.27;6.57;;;;;;;;;;6116676;23;20041;-79
2021/12/29 22:59:21;;;;;;;24.20;7.90;;;;;;;;;;6146772;23;20049;-79
2021/12/29 23:02:38;;;;;;;;;;;;;;;;;;;;;
2021/12/29 23:09:06;;;;;;;23.80;6.45;;;;;;;;;;6156687;23;20056;-80
2021/12/29 23:12:26;;;;;;;26.55;7.30;;;;;;;;;;6153596;23;20088;-79
2021/12/29 23:19:03;;;;;;;;;;;;;;;;;;;;;
2021/12/29 23:21:53;;;;;;;19.93;4.83;;;;;;;;;;6120675;23;20100;-79
2021/12/29 23:25:03;;;;;;;;;;;;;;;;;;;;;
2021/12/29 23:30:43;;;;;;;19.08;5.10;;;;;;;;;;6157284;23;20120;-79
2021/12/29 23:33:16;;;;;;;21.75;5.40;;;;;;;;;;6132347;23;20107;-79
2021/12/29 23:39:02;;;;;;;23.42;5.18;;;;;;;;;;6146510;23;20022;-81
2021/12/29 23:41:31;;;;;;;28.20;6.03;;;;;;;;;;6129027;23;20069;-79
2021/12/29 23:43:59;;;;;;;20.55;5.53;;;;;;;;;;6132414;23;20020;-79
2021/12/29 23:46:44;;;;;;;28.27;6.80;;;;;;;;;;6130355;23;20064;-79
2021/12/29 23:52:38;;;;;;;;;;;;;;;;;;;;;
2021/12/29 23:55:13;;;;;;;26.55;5.82;;;;;;;;;;6156773;23;20423;-79
2021/12/29 23:57:53;;;;;;;27.90;5.90;;;;;;;;;;6132907;23;20017;-79
